createdAt,value
2018-04-17T05:54:36.103Z,382.50
2018-04-17T05:54:36.671Z,382.50
2018-04-17T05:54:37.273Z,382.50
2018-04-17T05:54:37.869Z,382.50
2018-04-17T05:54:38.469Z,382.50
2018-04-17T05:54:39.070Z,382.50
2018-04-17T05:54:39.668Z,382.50
2018-04-17T05:54:40.269Z,382.50
2018-04-17T05:54:40.870Z,382.50
2018-04-17T05:54:41.468Z,382.50
2018-04-17T05:54:42.068Z,382.50
2018-04-17T05:54:42.675Z,382.50
2018-04-17T05:55:37.802Z,388.13
2018-04-17T05:55:38.308Z,388.13
2018-04-17T05:55:38.908Z,388.13
2018-04-17T05:55:39.510Z,388.13
2018-04-17T05:55:40.108Z,388.13
2018-04-17T05:55:40.716Z,388.13
2018-04-17T05:55:41.372Z,388.13
2018-04-17T05:55:41.915Z,388.13
2018-04-17T05:56:35.433Z,371.25
2018-04-17T05:56:36.032Z,371.25
2018-04-17T05:56:36.628Z,371.25
2018-04-17T05:56:37.230Z,371.25
2018-04-17T05:56:37.831Z,371.25
2018-04-17T05:56:38.431Z,371.25
2018-04-17T05:56:39.029Z,371.25
2018-04-17T05:56:39.630Z,371.25
2018-04-17T05:57:33.084Z,376.88
2018-04-17T05:57:33.682Z,376.88
2018-04-17T05:57:34.281Z,376.88
2018-04-17T05:57:34.881Z,376.88
2018-04-17T05:57:35.480Z,376.88
2018-04-17T05:57:36.082Z,376.88
2018-04-17T05:57:36.680Z,376.88
2018-04-17T05:57:37.281Z,376.88
2018-04-17T05:58:30.735Z,360.00
2018-04-17T05:58:31.333Z,360.00
2018-04-17T05:58:31.933Z,360.00
2018-04-17T05:58:32.533Z,360.00
2018-04-17T05:58:33.132Z,360.00
2018-04-17T05:58:33.732Z,360.00
2018-04-17T05:58:34.332Z,360.00
2018-04-17T05:58:34.932Z,360.00
2018-04-17T05:59:28.387Z,343.13
2018-04-17T05:59:28.985Z,348.75
2018-04-17T05:59:29.585Z,348.75
2018-04-17T05:59:30.195Z,343.13
2018-04-17T05:59:30.797Z,343.13
2018-04-17T05:59:31.384Z,343.13
2018-04-17T05:59:31.987Z,343.13
2018-04-17T05:59:32.583Z,343.13
2018-04-17T06:00:26.069Z,348.75
2018-04-17T06:00:26.636Z,348.75
2018-04-17T06:00:27.237Z,348.75
2018-04-17T06:00:27.835Z,354.38
2018-04-17T06:00:28.436Z,354.38
2018-04-17T06:00:29.036Z,348.75
2018-04-17T06:00:29.636Z,348.75
2018-04-17T06:00:30.235Z,348.75
2018-04-17T06:01:23.692Z,365.63
2018-04-17T06:01:24.288Z,365.63
2018-04-17T06:01:24.898Z,365.63
2018-04-17T06:01:25.493Z,365.63
2018-04-17T06:01:26.100Z,365.63
2018-04-17T06:01:26.719Z,365.63
2018-04-17T06:01:27.286Z,365.63
2018-04-17T06:01:27.886Z,365.63
2018-04-17T06:02:21.854Z,382.50
2018-04-17T06:02:22.450Z,382.50
2018-04-17T06:02:23.053Z,382.50
2018-04-17T06:02:23.656Z,382.50
2018-04-17T06:02:24.251Z,382.50
2018-04-17T06:02:24.851Z,382.50
2018-04-17T06:02:25.450Z,382.50
2018-04-17T06:03:20.427Z,388.13
2018-04-17T06:03:21.031Z,388.13
2018-04-17T06:03:21.624Z,388.13
2018-04-17T06:03:22.223Z,388.13
2018-04-17T06:03:22.829Z,388.13
2018-04-17T06:03:23.424Z,388.13
2018-04-17T06:03:24.024Z,388.13
2018-04-17T06:04:18.488Z,393.75
2018-04-17T06:04:19.086Z,388.13
2018-04-17T06:04:19.686Z,388.13
2018-04-17T06:04:20.297Z,388.13
2018-04-17T06:04:20.891Z,388.13
2018-04-17T06:04:21.484Z,388.13
2018-04-17T06:04:22.085Z,388.13
2018-04-17T06:04:22.684Z,388.13
2018-04-17T06:05:16.805Z,382.50
2018-04-17T06:05:17.363Z,382.50
2018-04-17T06:05:17.953Z,382.50
2018-04-17T06:05:18.551Z,382.50
2018-04-17T06:05:19.154Z,382.50
2018-04-17T06:05:19.752Z,382.50
2018-04-17T06:05:20.350Z,382.50
2018-04-17T06:06:13.897Z,371.25
2018-04-17T06:06:14.493Z,371.25
2018-04-17T06:06:15.092Z,371.25
2018-04-17T06:06:15.693Z,371.25
2018-04-17T06:06:16.294Z,376.88
2018-04-17T06:06:16.891Z,371.25
2018-04-17T06:06:17.503Z,371.25
2018-04-17T06:06:18.094Z,371.25
2018-04-17T06:07:12.568Z,382.50
2018-04-17T06:07:13.166Z,382.50
2018-04-17T06:07:13.768Z,382.50
2018-04-17T06:07:14.367Z,382.50
2018-04-17T06:07:14.968Z,382.50
2018-04-17T06:07:15.566Z,382.50
2018-04-17T06:07:16.166Z,382.50
2018-04-17T06:07:16.769Z,382.50
2018-04-17T06:08:11.263Z,371.25
2018-04-17T06:08:11.842Z,371.25
2018-04-17T06:08:12.443Z,371.25
2018-04-17T06:08:13.041Z,371.25
2018-04-17T06:08:13.648Z,371.25
2018-04-17T06:08:14.242Z,371.25
2018-04-17T06:08:14.842Z,371.25
2018-04-17T06:08:15.441Z,371.25
2018-04-17T06:09:08.902Z,371.25
2018-04-17T06:09:09.494Z,371.25
2018-04-17T06:09:10.096Z,371.25
2018-04-17T06:09:10.696Z,371.25
2018-04-17T06:09:11.294Z,371.25
2018-04-17T06:09:11.894Z,371.25
2018-04-17T06:09:12.500Z,371.25
2018-04-17T06:09:13.095Z,371.25
2018-04-17T06:10:07.604Z,376.88
2018-04-17T06:10:08.170Z,376.88
2018-04-17T06:10:08.770Z,376.88
2018-04-17T06:10:09.369Z,376.88
2018-04-17T06:10:09.970Z,376.88
2018-04-17T06:10:10.571Z,376.88
2018-04-17T06:10:11.168Z,388.13
2018-04-17T06:10:11.769Z,388.13
2018-04-17T06:11:05.329Z,405.00
2018-04-17T06:11:05.926Z,405.00
2018-04-17T06:11:06.525Z,405.00
2018-04-17T06:11:07.126Z,405.00
2018-04-17T06:11:07.725Z,405.00
2018-04-17T06:11:08.325Z,405.00
2018-04-17T06:11:08.924Z,405.00
2018-04-17T06:11:09.523Z,405.00
2018-04-17T06:12:04.023Z,399.38
2018-04-17T06:12:04.603Z,399.38
2018-04-17T06:12:05.201Z,399.38
2018-04-17T06:12:05.800Z,399.38
2018-04-17T06:12:06.400Z,399.38
2018-04-17T06:12:06.998Z,399.38
2018-04-17T06:12:07.618Z,399.38
2018-04-17T06:12:08.197Z,399.38
2018-04-17T06:13:02.678Z,399.38
2018-04-17T06:13:03.275Z,405.00
2018-04-17T06:13:03.875Z,405.00
2018-04-17T06:13:04.475Z,405.00
2018-04-17T06:13:05.089Z,405.00
2018-04-17T06:13:05.678Z,405.00
2018-04-17T06:13:06.275Z,405.00
2018-04-17T06:13:06.875Z,405.00
2018-04-17T06:14:00.841Z,416.25
2018-04-17T06:14:01.447Z,416.25
2018-04-17T06:14:02.038Z,416.25
2018-04-17T06:14:02.639Z,416.25
2018-04-17T06:14:03.239Z,416.25
2018-04-17T06:14:03.840Z,416.25
2018-04-17T06:14:04.439Z,416.25
2018-04-17T06:15:17.279Z,410.63
2018-04-17T06:15:17.833Z,410.63
2018-04-17T06:15:18.430Z,410.63
2018-04-17T06:15:19.034Z,410.63
2018-04-17T06:15:19.631Z,410.63
2018-04-17T06:15:20.231Z,410.63
2018-04-17T06:15:20.830Z,416.25
2018-04-17T06:15:21.457Z,410.63
2018-04-17T06:16:15.917Z,416.25
2018-04-17T06:16:16.505Z,416.25
2018-04-17T06:16:17.111Z,416.25
2018-04-17T06:16:17.707Z,416.25
2018-04-17T06:16:18.306Z,416.25
2018-04-17T06:16:18.905Z,416.25
2018-04-17T06:16:19.506Z,416.25
2018-04-17T06:16:20.105Z,416.25
2018-04-17T06:17:14.592Z,427.50
2018-04-17T06:17:15.182Z,427.50
2018-04-17T06:17:15.783Z,427.50
2018-04-17T06:17:16.387Z,427.50
2018-04-17T06:17:16.980Z,427.50
2018-04-17T06:17:17.579Z,427.50
2018-04-17T06:17:18.179Z,427.50
2018-04-17T06:17:18.778Z,427.50
2018-04-17T06:18:13.267Z,416.25
2018-04-17T06:18:13.857Z,416.25
2018-04-17T06:18:14.465Z,416.25
2018-04-17T06:18:15.058Z,416.25
2018-04-17T06:18:15.657Z,416.25
2018-04-17T06:18:16.257Z,416.25
2018-04-17T06:18:16.857Z,416.25
2018-04-17T06:18:17.464Z,416.25
2018-04-17T06:19:10.918Z,416.25
2018-04-17T06:19:11.514Z,416.25
2018-04-17T06:19:12.109Z,416.25
2018-04-17T06:19:12.719Z,416.25
2018-04-17T06:19:13.309Z,416.25
2018-04-17T06:19:13.918Z,416.25
2018-04-17T06:19:14.511Z,416.25
2018-04-17T06:19:15.109Z,410.63
2018-04-17T06:20:08.566Z,410.63
2018-04-17T06:20:09.162Z,410.63
2018-04-17T06:20:09.761Z,410.63
2018-04-17T06:20:10.365Z,410.63
2018-04-17T06:20:10.964Z,410.63
2018-04-17T06:20:11.562Z,410.63
2018-04-17T06:20:12.161Z,410.63
2018-04-17T06:20:12.772Z,410.63
2018-04-17T06:21:07.337Z,421.88
2018-04-17T06:21:07.844Z,421.88
2018-04-17T06:21:08.441Z,421.88
2018-04-17T06:21:09.042Z,421.88
2018-04-17T06:21:09.641Z,421.88
2018-04-17T06:21:10.240Z,421.88
2018-04-17T06:21:10.842Z,421.88
2018-04-17T06:21:11.441Z,421.88
2018-04-17T06:22:05.917Z,427.50
2018-04-17T06:22:06.514Z,427.50
2018-04-17T06:22:07.112Z,427.50
2018-04-17T06:22:07.711Z,427.50
2018-04-17T06:22:08.311Z,427.50
2018-04-17T06:22:08.913Z,427.50
2018-04-17T06:22:09.511Z,427.50
2018-04-17T06:22:10.112Z,427.50
2018-04-17T06:23:03.570Z,433.13
2018-04-17T06:23:04.165Z,433.13
2018-04-17T06:23:04.764Z,433.13
2018-04-17T06:23:05.364Z,433.13
2018-04-17T06:23:05.965Z,433.13
2018-04-17T06:23:06.564Z,433.13
2018-04-17T06:23:07.169Z,433.13
2018-04-17T06:23:07.768Z,433.13
2018-04-17T06:24:01.222Z,433.13
2018-04-17T06:24:01.822Z,433.13
2018-04-17T06:24:02.420Z,433.13
2018-04-17T06:24:03.019Z,433.13
2018-04-17T06:24:03.616Z,433.13
2018-04-17T06:24:04.217Z,433.13
2018-04-17T06:24:04.818Z,433.13
2018-04-17T06:24:05.426Z,433.13
2018-04-17T06:24:59.897Z,427.50
2018-04-17T06:25:00.491Z,427.50
2018-04-17T06:25:01.091Z,427.50
2018-04-17T06:25:01.690Z,427.50
2018-04-17T06:25:02.291Z,427.50
2018-04-17T06:25:02.892Z,427.50
2018-04-17T06:25:03.491Z,427.50
2018-04-17T06:25:04.098Z,427.50
2018-04-17T06:25:58.612Z,433.13
2018-04-17T06:25:59.171Z,433.13
2018-04-17T06:25:59.794Z,433.13
2018-04-17T06:26:00.398Z,427.50
2018-04-17T06:26:01.020Z,427.50
2018-04-17T06:26:01.594Z,427.50
2018-04-17T06:26:02.170Z,427.50
2018-04-17T06:26:02.771Z,427.50
2018-04-17T08:10:12.787Z,517.50
2018-04-17T08:10:13.289Z,517.50
2018-04-17T08:10:13.889Z,517.50
2018-04-17T08:10:14.490Z,517.50
2018-04-17T08:10:15.106Z,517.50
2018-04-17T08:10:15.687Z,517.50
2018-04-17T08:10:16.406Z,517.50
2018-04-17T08:10:16.885Z,517.50
2018-04-17T08:10:17.485Z,517.50
2018-04-17T08:10:18.085Z,517.50
2018-04-17T08:10:18.705Z,517.50
2018-04-17T08:10:19.327Z,517.50
2018-04-17T08:46:52.125Z,551.25
2018-04-17T08:46:52.664Z,551.25
2018-04-17T08:46:53.270Z,551.25
2018-04-17T08:46:53.865Z,551.25
2018-04-17T08:46:54.468Z,551.25
2018-04-17T08:46:55.063Z,551.25
2018-04-17T08:46:55.663Z,551.25
2018-04-17T08:46:56.276Z,551.25
2018-04-17T08:46:56.862Z,551.25
2018-04-17T08:46:57.462Z,551.25
2018-04-17T08:46:58.062Z,551.25
2018-04-17T08:46:58.666Z,551.25
2018-04-17T08:46:59.263Z,551.25
2018-04-17T08:46:59.862Z,551.25
2018-04-17T08:47:00.477Z,551.25
2018-04-17T08:47:55.962Z,545.63
2018-04-17T08:47:56.568Z,545.63
2018-04-17T08:47:57.160Z,545.63
2018-04-17T08:47:57.760Z,545.63
2018-04-17T08:47:58.360Z,545.63
2018-04-17T08:47:58.961Z,545.63
2018-04-17T08:49:13.636Z,545.63
2018-04-17T08:49:14.182Z,545.63
2018-04-17T08:49:14.781Z,545.63
2018-04-17T08:49:15.380Z,545.63
2018-04-17T08:49:15.984Z,545.63
2018-04-17T08:49:16.581Z,545.63
2018-04-17T08:49:17.179Z,545.63
2018-04-17T08:50:18.233Z,551.25
2018-04-17T08:50:18.797Z,551.25
2018-04-17T08:50:19.396Z,551.25
2018-04-17T08:50:19.996Z,551.25
2018-04-17T08:50:20.597Z,551.25
2018-04-17T08:50:21.246Z,556.88
2018-04-17T08:50:21.794Z,551.25
2018-04-17T08:50:22.421Z,551.25
2018-04-17T08:50:23.012Z,551.25
2018-04-17T08:50:23.595Z,556.88
2018-04-17T08:50:24.194Z,551.25
2018-04-17T08:50:24.817Z,551.25
2018-04-17T08:51:50.362Z,551.25
2018-04-17T08:51:50.964Z,551.25
2018-04-17T08:51:51.556Z,551.25
2018-04-17T08:51:52.181Z,551.25
2018-04-17T08:51:52.757Z,551.25
2018-04-17T08:52:49.284Z,551.25
2018-04-17T08:52:49.842Z,551.25
2018-04-17T08:52:50.439Z,551.25
2018-04-17T08:52:51.038Z,551.25
2018-04-17T08:52:51.638Z,551.25
2018-04-17T08:52:52.272Z,551.25
2018-04-17T08:53:47.731Z,556.88
2018-04-17T08:53:48.315Z,556.88
2018-04-17T08:53:48.911Z,556.88
2018-04-17T08:53:49.509Z,556.88
2018-04-17T08:53:50.111Z,556.88
2018-04-17T08:53:50.726Z,556.88
2018-04-17T08:54:44.756Z,556.88
2018-04-17T08:54:45.349Z,556.88
2018-04-17T08:54:45.948Z,556.88
2018-04-17T08:54:46.551Z,556.88
2018-04-17T08:54:47.149Z,556.88
2018-04-17T08:54:47.748Z,556.88
2018-04-17T08:54:48.348Z,556.88
2018-04-17T08:54:48.954Z,556.88
2018-04-17T08:55:49.990Z,562.50
2018-04-17T08:55:50.578Z,562.50
2018-04-17T08:55:51.184Z,562.50
2018-04-17T08:55:51.781Z,562.50
2018-04-17T08:55:52.378Z,562.50
2018-04-17T08:55:52.986Z,562.50
2018-04-17T08:55:53.575Z,562.50
2018-04-17T08:55:54.176Z,562.50
2018-04-17T08:55:54.778Z,562.50
2018-04-17T08:55:55.375Z,562.50
2018-04-17T08:55:55.978Z,562.50
2018-04-17T08:55:56.575Z,562.50
2018-04-17T08:56:51.633Z,556.88
2018-04-17T08:56:52.231Z,556.88
2018-04-17T08:56:52.824Z,556.88
2018-04-17T08:56:53.430Z,562.50
2018-04-17T08:56:54.037Z,556.88
2018-04-17T08:56:54.633Z,556.88
2018-04-17T08:57:53.606Z,556.88
2018-04-17T08:57:54.176Z,556.88
2018-04-17T08:57:54.775Z,556.88
2018-04-17T08:57:55.377Z,556.88
2018-04-17T08:57:55.976Z,556.88
2018-04-17T08:57:56.578Z,556.88
2018-04-17T08:57:57.179Z,556.88
2018-04-17T08:57:57.804Z,556.88
2018-04-17T08:57:58.374Z,556.88
2018-04-17T08:57:58.978Z,556.88
2018-04-17T08:57:59.575Z,556.88
2018-04-17T08:58:00.174Z,556.88
2018-04-17T08:58:00.774Z,556.88
2018-04-17T08:58:01.374Z,556.88
2018-04-17T08:58:01.973Z,556.88
2018-04-17T08:58:02.574Z,556.88
2018-04-17T08:58:03.175Z,556.88
2018-04-17T08:58:58.707Z,562.50
2018-04-17T08:58:59.318Z,562.50
2018-04-17T08:58:59.903Z,562.50
2018-04-17T08:59:00.505Z,562.50
2018-04-17T08:59:01.104Z,562.50
2018-04-17T08:59:01.715Z,562.50
2018-04-17T09:00:13.282Z,568.13
2018-04-17T09:00:13.851Z,568.13
2018-04-17T09:00:14.453Z,568.13
2018-04-17T09:00:15.053Z,568.13
2018-04-17T09:00:15.649Z,568.13
2018-04-17T09:00:16.251Z,568.13
2018-04-17T09:00:16.849Z,568.13
2018-04-17T09:00:17.451Z,568.13
2018-04-17T09:00:18.051Z,568.13
2018-04-17T09:00:18.653Z,568.13
2018-04-17T09:00:19.250Z,568.13
2018-04-17T09:00:19.849Z,568.13
2018-04-17T09:01:13.366Z,573.75
2018-04-17T09:01:13.963Z,573.75
2018-04-17T09:01:14.565Z,573.75
2018-04-17T09:01:15.162Z,573.75
2018-04-17T09:01:15.775Z,573.75
2018-04-17T09:01:16.371Z,573.75
2018-04-17T09:01:16.962Z,573.75
2018-04-17T09:01:17.562Z,573.75
2018-04-17T09:02:11.044Z,573.75
2018-04-17T09:02:11.613Z,573.75
2018-04-17T09:02:12.212Z,573.75
2018-04-17T09:02:12.814Z,573.75
2018-04-17T09:02:13.417Z,573.75
2018-04-17T09:02:14.019Z,573.75
2018-04-17T09:02:14.613Z,573.75
2018-04-17T09:02:15.215Z,573.75
2018-04-17T09:03:09.185Z,579.38
2018-04-17T09:03:09.777Z,579.38
2018-04-17T09:03:10.375Z,579.38
2018-04-17T09:03:10.977Z,585.00
2018-04-17T09:03:11.580Z,585.00
2018-04-17T09:03:12.187Z,579.38
2018-04-17T09:03:12.780Z,579.38
2018-04-17T09:04:06.833Z,585.00
2018-04-17T09:04:07.426Z,585.00
2018-04-17T09:04:08.031Z,585.00
2018-04-17T09:04:08.627Z,585.00
2018-04-17T09:04:09.226Z,585.00
2018-04-17T09:04:09.827Z,585.00
2018-04-17T09:04:10.427Z,585.00
2018-04-17T09:05:03.971Z,590.63
2018-04-17T09:05:04.571Z,590.63
2018-04-17T09:05:05.169Z,590.63
2018-04-17T09:05:05.770Z,590.63
2018-04-17T09:05:06.367Z,590.63
2018-04-17T09:05:06.968Z,590.63
2018-04-17T09:05:07.571Z,590.63
2018-04-17T09:05:08.170Z,590.63
2018-04-17T09:06:31.723Z,601.88
2018-04-17T09:06:32.256Z,596.25
2018-04-17T09:06:32.851Z,596.25
2018-04-17T09:06:33.448Z,596.25
2018-04-17T09:06:34.054Z,596.25
2018-04-17T09:06:34.647Z,596.25
2018-04-17T09:06:35.247Z,596.25
2018-04-17T09:06:35.848Z,596.25
2018-04-17T09:06:36.447Z,596.25
2018-04-17T09:06:37.048Z,596.25
2018-04-17T09:07:30.539Z,601.88
2018-04-17T09:07:31.103Z,601.88
2018-04-17T09:07:31.703Z,601.88
2018-04-17T09:07:32.304Z,601.88
2018-04-17T09:07:32.911Z,601.88
2018-04-17T09:07:33.513Z,601.88
2018-04-17T09:07:34.105Z,601.88
2018-04-17T09:07:34.704Z,601.88
2018-04-17T09:08:29.800Z,607.50
2018-04-17T09:08:30.395Z,607.50
2018-04-17T09:08:30.993Z,607.50
2018-04-17T09:08:31.593Z,607.50
2018-04-17T09:08:32.191Z,607.50
2018-04-17T09:46:07.683Z,652.50
2018-04-17T09:46:08.252Z,652.50
2018-04-17T09:46:08.825Z,652.50
2018-04-17T09:46:09.427Z,652.50
2018-04-17T09:46:10.023Z,652.50
2018-04-17T09:47:05.016Z,573.75
2018-04-17T09:47:05.570Z,568.13
2018-04-17T09:47:06.169Z,568.13
2018-04-17T09:47:06.769Z,568.13
2018-04-17T09:47:08.120Z,573.75
2018-04-17T09:47:08.629Z,579.38
2018-04-17T09:47:09.228Z,573.75
2018-04-17T09:48:12.959Z,585.00
2018-04-17T09:48:13.463Z,585.00
2018-04-17T09:48:13.961Z,585.00
2018-04-17T09:48:14.561Z,585.00
2018-04-17T09:48:15.214Z,585.00
2018-04-17T09:48:15.760Z,585.00
2018-04-17T09:48:16.359Z,585.00
2018-04-17T09:48:16.992Z,585.00
2018-04-17T09:49:23.529Z,663.75
2018-04-17T09:49:24.119Z,663.75
2018-04-17T09:49:24.721Z,663.75
2018-04-17T09:50:19.765Z,669.38
2018-04-17T09:50:20.338Z,669.38
2018-04-17T09:50:20.955Z,669.38
2018-04-17T09:50:21.540Z,669.38
2018-04-17T09:50:22.155Z,669.38
2018-04-17T09:50:22.771Z,675.00
2018-04-17T09:51:17.327Z,658.13
2018-04-17T09:51:17.893Z,663.75
2018-04-17T09:51:18.488Z,675.00
2018-04-17T09:51:19.095Z,675.00
2018-04-17T09:51:19.697Z,675.00
2018-04-17T09:51:20.300Z,675.00
2018-04-17T09:51:20.889Z,675.00
2018-04-17T09:52:17.435Z,658.13
2018-04-17T09:52:17.997Z,652.50
2018-04-17T09:52:18.596Z,646.88
2018-04-17T09:53:13.108Z,658.13
2018-04-17T09:53:13.703Z,663.75
2018-04-17T09:53:14.304Z,658.13
2018-04-17T09:53:14.915Z,658.13
2018-04-17T09:53:15.528Z,658.13
2018-04-17T09:53:16.137Z,658.13
2018-04-17T09:53:16.754Z,663.75
2018-04-17T09:53:17.303Z,663.75
2018-04-17T09:54:10.761Z,720.00
2018-04-17T09:54:11.357Z,720.00
2018-04-17T09:54:11.957Z,725.63
2018-04-17T09:54:12.556Z,725.63
2018-04-17T09:54:13.159Z,725.63
2018-04-17T09:54:13.756Z,725.63
2018-04-17T09:54:14.357Z,725.63
2018-04-17T09:54:14.957Z,731.25
2018-04-17T09:55:09.436Z,748.13
2018-04-17T09:55:10.032Z,748.13
2018-04-17T09:55:10.642Z,748.13
2018-04-17T09:55:11.238Z,748.13
2018-04-17T09:55:11.831Z,748.13
2018-04-17T09:55:12.470Z,748.13
2018-04-17T09:55:13.032Z,753.75
2018-04-17T09:55:13.633Z,753.75
2018-04-17T09:56:07.268Z,680.63
2018-04-17T09:56:07.684Z,680.63
2018-04-17T09:56:08.297Z,680.63
2018-04-17T09:56:08.887Z,680.63
2018-04-17T09:56:09.522Z,680.63
2018-04-17T09:56:10.102Z,686.25
2018-04-17T09:56:10.683Z,680.63
2018-04-17T09:56:11.286Z,680.63
2018-04-17T09:57:04.745Z,725.63
2018-04-17T09:57:05.375Z,725.63
2018-04-17T09:57:05.937Z,731.25
2018-04-17T09:57:06.648Z,736.88
2018-04-17T09:57:07.163Z,736.88
2018-04-17T09:57:07.774Z,736.88
2018-04-17T09:57:08.380Z,736.88
2018-04-17T09:57:08.941Z,736.88
2018-04-17T09:58:03.952Z,753.75
2018-04-17T09:58:04.522Z,748.13
2018-04-17T09:58:05.128Z,748.13
2018-04-17T09:58:05.722Z,748.13
2018-04-17T09:58:06.323Z,748.13
2018-04-17T09:58:06.924Z,753.75
2018-04-17T09:59:00.964Z,759.38
2018-04-17T09:59:01.564Z,759.38
2018-04-17T09:59:02.161Z,765.00
2018-04-17T09:59:02.760Z,759.38
2018-04-17T09:59:03.361Z,759.38
2018-04-17T09:59:03.961Z,759.38
2018-04-17T09:59:04.561Z,759.38
2018-04-17T09:59:05.163Z,759.38
2018-04-17T09:59:58.619Z,731.25
2018-04-17T09:59:59.235Z,736.88
2018-04-17T09:59:59.813Z,736.88
2018-04-17T10:00:00.412Z,736.88
2018-04-17T10:00:01.013Z,736.88
2018-04-17T10:00:01.614Z,731.25
2018-04-17T10:00:02.236Z,731.25
2018-04-17T10:00:02.813Z,731.25
2018-04-17T10:00:57.289Z,731.25
2018-04-17T10:00:57.888Z,725.63
2018-04-17T10:00:58.489Z,725.63
2018-04-17T10:00:59.090Z,731.25
2018-04-17T10:00:59.688Z,731.25
2018-04-17T10:01:00.387Z,736.88
2018-04-17T10:01:00.891Z,731.25
2018-04-17T10:01:01.488Z,736.88
2018-04-17T10:01:54.942Z,736.88
2018-04-17T10:01:55.541Z,742.50
2018-04-17T10:01:56.140Z,742.50
2018-04-17T10:01:56.741Z,742.50
2018-04-17T10:01:57.340Z,742.50
2018-04-17T10:01:57.943Z,736.88
2018-04-17T10:01:58.541Z,736.88
2018-04-17T10:01:59.142Z,731.25
2018-04-17T10:02:53.688Z,838.13
2018-04-17T10:02:54.216Z,849.38
2018-04-17T10:02:54.818Z,843.75
2018-04-17T10:02:55.416Z,838.13
2018-04-17T10:02:56.016Z,838.13
2018-04-17T10:02:56.618Z,843.75
2018-04-17T10:02:57.230Z,838.13
2018-04-17T10:02:57.817Z,838.13
2018-04-17T10:03:51.322Z,753.75
2018-04-17T10:03:51.870Z,748.13
2018-04-17T10:03:52.466Z,748.13
2018-04-17T10:03:53.066Z,748.13
2018-04-17T10:03:53.667Z,748.13
2018-04-17T10:03:54.265Z,748.13
2018-04-17T10:03:54.866Z,753.75
2018-04-17T10:03:55.468Z,748.13
2018-04-17T10:04:49.948Z,720.00
2018-04-17T10:04:50.551Z,720.00
2018-04-17T10:04:51.143Z,720.00
2018-04-17T10:04:51.742Z,720.00
2018-04-17T10:04:52.344Z,720.00
2018-04-17T10:04:52.943Z,720.00
2018-04-17T10:04:53.547Z,720.00
2018-04-17T10:04:54.147Z,720.00
2018-04-17T10:05:47.598Z,765.00
2018-04-17T10:05:48.199Z,770.63
2018-04-17T10:05:48.798Z,765.00
2018-04-17T10:05:49.398Z,765.00
2018-04-17T10:05:49.999Z,765.00
2018-04-17T10:05:50.596Z,765.00
2018-04-17T10:05:51.196Z,765.00
2018-04-17T10:05:51.798Z,770.63
2018-04-17T10:06:46.273Z,714.38
2018-04-17T10:06:46.868Z,714.38
2018-04-17T10:06:47.470Z,714.38
2018-04-17T10:06:48.069Z,720.00
2018-04-17T10:06:48.670Z,720.00
2018-04-17T10:06:49.268Z,720.00
2018-04-17T10:06:49.868Z,720.00
2018-04-17T10:06:50.470Z,720.00
2018-04-17T10:07:44.949Z,742.50
2018-04-17T10:07:45.546Z,742.50
2018-04-17T10:07:46.146Z,742.50
2018-04-17T10:07:46.746Z,742.50
2018-04-17T10:07:47.346Z,742.50
2018-04-17T10:07:47.945Z,742.50
2018-04-17T10:07:48.545Z,742.50
2018-04-17T10:07:49.148Z,742.50
2018-04-17T10:08:42.665Z,770.63
2018-04-17T10:08:43.210Z,770.63
2018-04-17T10:08:43.837Z,770.63
2018-04-17T10:08:44.461Z,770.63
2018-04-17T10:08:45.080Z,770.63
2018-04-17T10:08:45.653Z,770.63
2018-04-17T10:08:46.224Z,770.63
2018-04-17T10:08:46.816Z,770.63
2018-04-17T10:09:40.355Z,793.13
2018-04-17T10:09:40.955Z,793.13
2018-04-17T10:09:41.554Z,787.50
2018-04-17T10:09:42.152Z,793.13
2018-04-17T10:09:42.753Z,793.13
2018-04-17T10:09:43.353Z,793.13
2018-04-17T10:09:43.956Z,793.13
2018-04-17T10:09:44.554Z,793.13
2018-04-17T10:10:38.110Z,781.88
2018-04-17T10:10:38.708Z,787.50
2018-04-17T10:10:39.306Z,781.88
2018-04-17T10:10:39.908Z,781.88
2018-04-17T10:10:40.508Z,781.88
2018-04-17T10:10:41.110Z,781.88
2018-04-17T10:10:41.706Z,781.88
2018-04-17T10:10:42.307Z,787.50
2018-04-17T10:11:35.864Z,787.50
2018-04-17T10:11:36.462Z,781.88
2018-04-17T10:11:37.061Z,781.88
2018-04-17T10:11:37.665Z,781.88
2018-04-17T10:11:38.261Z,787.50
2018-04-17T10:11:38.864Z,787.50
2018-04-17T10:11:39.464Z,787.50
2018-04-17T10:11:40.061Z,787.50
2018-04-17T10:12:33.622Z,821.25
2018-04-17T10:12:34.216Z,821.25
2018-04-17T10:12:34.816Z,821.25
2018-04-17T10:12:35.415Z,821.25
2018-04-17T10:12:36.018Z,832.50
2018-04-17T10:12:36.616Z,821.25
2018-04-17T10:12:37.216Z,815.63
2018-04-17T10:12:37.815Z,815.63
2018-04-17T10:13:31.401Z,860.63
2018-04-17T10:13:31.970Z,860.63
2018-04-17T10:13:32.571Z,860.63
2018-04-17T10:13:33.169Z,860.63
2018-04-17T10:13:33.770Z,866.25
2018-04-17T10:13:34.373Z,855.00
2018-04-17T10:13:34.969Z,849.38
2018-04-17T10:13:35.571Z,838.13
2018-04-17T10:14:29.126Z,860.63
2018-04-17T10:14:29.724Z,866.25
2018-04-17T10:14:30.325Z,860.63
2018-04-17T10:14:30.926Z,860.63
2018-04-17T10:14:31.523Z,855.00
2018-04-17T10:14:32.123Z,855.00
2018-04-17T10:14:32.726Z,855.00
2018-04-17T10:14:33.324Z,860.63
2018-04-17T10:15:27.800Z,815.63
2018-04-17T10:15:28.403Z,815.63
2018-04-17T10:15:29.000Z,815.63
2018-04-17T10:15:29.597Z,815.63
2018-04-17T10:15:30.198Z,815.63
2018-04-17T10:15:30.800Z,815.63
2018-04-17T10:15:31.399Z,815.63
2018-04-17T10:15:31.999Z,815.63
2018-04-17T10:16:25.453Z,804.38
2018-04-17T10:16:26.052Z,804.38
2018-04-17T10:16:26.652Z,804.38
2018-04-17T10:16:27.251Z,804.38
2018-04-17T10:16:27.852Z,804.38
2018-04-17T10:16:28.452Z,804.38
2018-04-17T10:16:29.050Z,810.00
2018-04-17T10:16:29.652Z,804.38
2018-04-17T10:17:23.260Z,776.25
2018-04-17T10:17:23.812Z,776.25
2018-04-17T10:17:24.431Z,776.25
2018-04-17T10:17:25.038Z,776.25
2018-04-17T10:17:25.657Z,776.25
2018-04-17T10:17:26.241Z,776.25
2018-04-17T10:17:26.843Z,776.25
2018-04-17T10:17:27.442Z,776.25
2018-04-17T10:18:21.910Z,759.38
2018-04-17T10:18:22.485Z,759.38
2018-04-17T10:18:23.081Z,759.38
2018-04-17T10:18:23.680Z,759.38
2018-04-17T10:18:24.278Z,765.00
2018-04-17T10:18:24.881Z,765.00
2018-04-17T10:18:25.480Z,759.38
2018-04-17T10:18:26.079Z,759.38
2018-04-17T10:19:20.558Z,804.38
2018-04-17T10:19:21.157Z,804.38
2018-04-17T10:19:21.756Z,804.38
2018-04-17T10:19:22.355Z,804.38
2018-04-17T10:19:22.958Z,804.38
2018-04-17T10:19:23.556Z,804.38
2018-04-17T10:19:24.155Z,804.38
2018-04-17T10:19:24.757Z,804.38
2018-04-17T10:20:18.212Z,793.13
2018-04-17T10:20:18.809Z,793.13
2018-04-17T10:20:19.409Z,798.75
2018-04-17T10:20:20.014Z,793.13
2018-04-17T10:20:20.609Z,793.13
2018-04-17T10:20:21.207Z,798.75
2018-04-17T10:20:21.809Z,787.50
2018-04-17T10:20:22.413Z,787.50
2018-04-17T10:21:15.967Z,776.25
2018-04-17T10:21:16.564Z,776.25
2018-04-17T10:21:17.165Z,776.25
2018-04-17T10:21:17.760Z,776.25
2018-04-17T10:21:18.364Z,776.25
2018-04-17T10:21:18.960Z,776.25
2018-04-17T10:21:19.569Z,776.25
2018-04-17T10:21:20.161Z,776.25
2018-04-17T10:22:13.723Z,765.00
2018-04-17T10:22:14.319Z,765.00
2018-04-17T10:22:14.916Z,765.00
2018-04-17T10:22:15.518Z,765.00
2018-04-17T10:22:16.134Z,765.00
2018-04-17T10:22:16.717Z,765.00
2018-04-17T10:22:17.316Z,765.00
2018-04-17T10:22:17.917Z,765.00
2018-04-17T10:23:11.501Z,731.25
2018-04-17T10:23:12.072Z,725.63
2018-04-17T10:23:12.671Z,725.63
2018-04-17T10:23:13.272Z,720.00
2018-04-17T10:23:13.878Z,720.00
2018-04-17T10:23:14.472Z,720.00
2018-04-17T10:23:15.075Z,720.00
2018-04-17T10:23:15.674Z,720.00
2018-04-17T10:24:09.227Z,720.00